La Belle Poule — FBPU — position and weather

sailwx.info

Track history (hours):
 
Tides and Currents Weather Stations Pressure Air Temp Water Temp Dewpoint Dewpoint Depression Visibility Wind Speed Wind Dir Waves Ship Positions

La Belle Poule (France)

Ship's website: http://www.defense.gouv.fr/english/portail-defense

Last reported at 2017-May-27 16:41 UTC. Time now 2017-May-28 08:26 UTC.
Position N 48°23' W 004°30'.

Length 38 m; draft 3.6 m.

Type: Sailing vessel. MMSI: 228796000.

Date/timePositionNaut miles runAvg speedWind from/ knotsBaromVisibWave heightAir tempDewpointWater temp
2017-May-27 16:41N 48°23' W 004°30'0 0.6
2017-May-27 16:29N 48°23' W 004°30'2 4.2
2017-May-27 16:00N 48°21' W 004°29'3 6.7
2017-May-27 15:30N 48°18' W 004°26'1 2.5
2017-May-27 15:00N 48°18' W 004°24'1 1.2
2017-May-27 14:30N 48°19' W 004°23'0 0.5
2017-May-27 13:30N 48°19' W 004°24'1 1.2
2017-May-27 13:00N 48°18' W 004°25'0 0.4
2017-May-27 12:30N 48°18' W 004°25'0 0.9
2017-May-27 12:00N 48°18' W 004°25'1 1.6
2017-May-27 11:30N 48°19' W 004°27'1 1.8
2017-May-27 11:00N 48°18' W 004°25'1 1.7
2017-May-27 10:28N 48°19' W 004°26'1 2.4
2017-May-27 10:00N 48°18' W 004°25'0 0.7
2017-May-27 09:30N 48°18' W 004°25'0 0.2
2017-May-27 09:00N 48°18' W 004°25'0 0.6
2017-May-27 08:30N 48°18' W 004°25'0 0.1
2017-May-27 08:00N 48°18' W 004°25'0 0.3
2017-May-27 07:29N 48°18' W 004°25'0 0.3
2017-May-27 07:00N 48°17' W 004°25'1 1.1
2017-May-27 06:30N 48°18' W 004°25'3 6.8
2017-May-27 06:00N 48°20' W 004°29'3 6.2
2017-May-27 05:30N 48°20' W 004°34'3 6.7
2017-May-27 05:00N 48°17' W 004°35'0 0.2
2017-May-27 04:28N 48°17' W 004°35'0 0.0
2017-May-27 03:58N 48°17' W 004°35'0 0.0
2017-May-27 03:28N 48°17' W 004°35'0 0.0
2017-May-27 02:58N 48°17' W 004°35'0 0.0
2017-May-27 02:28N 48°17' W 004°35'0 0.0
2017-May-27 01:58N 48°17' W 004°35'0 0.0
2017-May-27 01:28N 48°17' W 004°35'0 0.0
2017-May-27 00:58N 48°17' W 004°35'0 0.0
2017-May-27 00:28N 48°17' W 004°35'0 0.0
2017-May-26 23:58N 48°17' W 004°35'0 0.0
2017-May-26 23:28N 48°17' W 004°35'0 0.0
2017-May-26 22:58N 48°17' W 004°35'0 0.0
2017-May-26 22:28N 48°17' W 004°35'0 0.0
2017-May-26 21:58N 48°17' W 004°35'0 0.0
2017-May-26 21:28N 48°17' W 004°35'0 0.0
2017-May-26 20:58N 48°17' W 004°35'0 0.0
2017-May-26 20:25N 48°17' W 004°35'0 0.0
2017-May-26 19:58N 48°17' W 004°35'0 0.0
2017-May-26 19:28N 48°17' W 004°35'0 0.0
2017-May-26 18:55N 48°17' W 004°35'0 0.0
2017-May-26 18:28N 48°17' W 004°35'0 0.0
2017-May-26 18:01N 48°17' W 004°35'0 0.0
2017-May-26 17:28N 48°17' W 004°35'0 0.0
2017-May-26 16:58N 48°17' W 004°35'0 0.5
2017-May-26 16:28N 48°17' W 004°36'0 0.0
2017-May-26 15:58N 48°17' W 004°36'0 0.0
2017-May-26 15:28N 48°17' W 004°36'0 0.5
2017-May-26 14:58N 48°17' W 004°35'2 2.1
2017-May-26 14:00N 48°19' W 004°36'0 1.0
2017-May-26 13:30N 48°18' W 004°36'1 1.4
2017-May-26 13:00N 48°18' W 004°37'1 2.1
2017-May-26 12:30N 48°17' W 004°35'0 0.6
2017-May-26 11:58N 48°17' W 004°35'0 0.0
2017-May-26 11:28N 48°17' W 004°35'0 0.0
2017-May-26 10:58N 48°17' W 004°35'0 0.0
2017-May-26 10:28N 48°17' W 004°35'0 0.0
2017-May-26 10:00N 48°17' W 004°35'3 5.4
2017-May-26 09:30N 48°20' W 004°35'5 9.1
2017-May-26 09:00N 48°22' W 004°29'1 1.9
2017-May-26 08:29N 48°23' W 004°30'0 0.0
2017-May-25 16:50N 48°23' W 004°30'0 0.0
2017-May-25 16:29N 48°23' W 004°30'1 3.0
2017-May-25 16:00N 48°22' W 004°30'4 7.8
2017-May-25 15:30N 48°19' W 004°35'3 4.7
2017-May-25 14:58N 48°17' W 004°35'0 0.0
2017-May-25 13:58N 48°17' W 004°35'0 0.0
2017-May-25 13:28N 48°17' W 004°35'0 0.0
2017-May-25 12:58N 48°17' W 004°35'0 0.0
2017-May-25 12:28N 48°17' W 004°35'0 0.0
2017-May-25 11:58N 48°17' W 004°35'0 0.0
2017-May-25 11:28N 48°17' W 004°35'0 0.0
2017-May-25 10:58N 48°17' W 004°35'0 0.0
2017-May-25 10:28N 48°17' W 004°35'0 0.0
2017-May-25 09:58N 48°17' W 004°35'2 3.3
2017-May-25 09:30N 48°18' W 004°35'4 7.0
2017-May-25 09:00N 48°21' W 004°32'2 4.5
2017-May-25 08:28N 48°23' W 004°30'0 0.0
2017-May-24 13:44N 48°23' W 004°30'0 0.0
2017-May-24 13:29N 48°23' W 004°30'1 1.4
2017-May-24 13:00N 48°23' W 004°29'3 5.4
2017-May-24 12:30N 48°20' W 004°29'1 1.1
2017-May-24 12:00N 48°20' W 004°28'0 0.8
2017-May-24 11:28N 48°20' W 004°27'0 0.0
2017-May-24 10:58N 48°20' W 004°27'0 0.0
2017-May-24 10:28N 48°20' W 004°27'0 0.0
2017-May-24 09:58N 48°20' W 004°27'1 1.5
2017-May-24 09:29N 48°19' W 004°28'1 1.2
2017-May-24 08:59N 48°20' W 004°28'1 3.2
2017-May-24 08:30N 48°21' W 004°29'1 2.8
2017-May-24 08:01N 48°23' W 004°30'0 0.2
2017-May-24 07:28N 48°23' W 004°30'0 0.0
2017-May-24 06:58N 48°23' W 004°30'0 0.0
2017-May-23 14:51N 48°23' W 004°30'0 0.1
2017-May-23 14:00N 48°23' W 004°30'  
2017-May-19 06:21N 48°23' W 004°30'1 1.9
2017-May-19 06:01N 48°22' W 004°30'3 6.1
2017-May-19 05:31N 48°21' W 004°33'4 8.2
2017-May-19 05:01N 48°18' W 004°38'4 7.6
2017-May-19 04:31N 48°17' W 004°44'4 7.1
2017-May-19 03:58N 48°13' W 004°45'4 7.6
2017-May-19 03:28N 48°09' W 004°45'4 7.9
2017-May-19 02:58N 48°05' W 004°46'55 3.8
2017-May-18 12:20N 47°42' W 003°31'1 3.0
2017-May-18 11:56N 47°41' W 003°30'1 1.9
2017-May-18 11:16N 47°40' W 003°29'1 5.1
2017-May-18 11:00N 47°41' W 003°28'1 2.5
2017-May-18 10:29N 47°40' W 003°27'2 4.0
2017-May-18 10:00N 47°41' W 003°25'3 6.0
2017-May-18 09:30N 47°43' W 003°22'  
Track history (hours):
 
Tides and Currents Weather Stations Pressure Air Temp Water Temp Dewpoint Dewpoint Depression Visibility Wind Speed Wind Dir Waves Ship Positions

La Belle Poule (France)

Ship's website: http://www.defense.gouv.fr/english/portail-defense

Last reported at 2017-May-27 16:41 UTC. Time now 2017-May-28 08:26 UTC.
Position N 48°23' W 004°30'.

Length 38 m; draft 3.6 m.

Type: Sailing vessel. MMSI: 228796000.

Date/timePositionNaut miles runAvg speedWind from/ knotsBaromVisibWave heightAir tempDewpointWater temp
2017-May-27 16:41N 48°23' W 004°30'0 0.6
2017-May-27 16:29N 48°23' W 004°30'2 4.2
2017-May-27 16:00N 48°21' W 004°29'3 6.7
2017-May-27 15:30N 48°18' W 004°26'1 2.5
2017-May-27 15:00N 48°18' W 004°24'1 1.2
2017-May-27 14:30N 48°19' W 004°23'0 0.5
2017-May-27 13:30N 48°19' W 004°24'1 1.2
2017-May-27 13:00N 48°18' W 004°25'0 0.4
2017-May-27 12:30N 48°18' W 004°25'0 0.9
2017-May-27 12:00N 48°18' W 004°25'1 1.6
2017-May-27 11:30N 48°19' W 004°27'1 1.8
2017-May-27 11:00N 48°18' W 004°25'1 1.7
2017-May-27 10:28N 48°19' W 004°26'1 2.4
2017-May-27 10:00N 48°18' W 004°25'0 0.7
2017-May-27 09:30N 48°18' W 004°25'0 0.2
2017-May-27 09:00N 48°18' W 004°25'0 0.6
2017-May-27 08:30N 48°18' W 004°25'0 0.1
2017-May-27 08:00N 48°18' W 004°25'0 0.3
2017-May-27 07:29N 48°18' W 004°25'0 0.3
2017-May-27 07:00N 48°17' W 004°25'1 1.1
2017-May-27 06:30N 48°18' W 004°25'3 6.8
2017-May-27 06:00N 48°20' W 004°29'3 6.2
2017-May-27 05:30N 48°20' W 004°34'3 6.7
2017-May-27 05:00N 48°17' W 004°35'0 0.2
2017-May-27 04:28N 48°17' W 004°35'0 0.0
2017-May-27 03:58N 48°17' W 004°35'0 0.0
2017-May-27 03:28N 48°17' W 004°35'0 0.0
2017-May-27 02:58N 48°17' W 004°35'0 0.0
2017-May-27 02:28N 48°17' W 004°35'0 0.0
2017-May-27 01:58N 48°17' W 004°35'0 0.0
2017-May-27 01:28N 48°17' W 004°35'0 0.0
2017-May-27 00:58N 48°17' W 004°35'0 0.0
2017-May-27 00:28N 48°17' W 004°35'0 0.0
2017-May-26 23:58N 48°17' W 004°35'0 0.0
2017-May-26 23:28N 48°17' W 004°35'0 0.0
2017-May-26 22:58N 48°17' W 004°35'0 0.0
2017-May-26 22:28N 48°17' W 004°35'0 0.0
2017-May-26 21:58N 48°17' W 004°35'0 0.0
2017-May-26 21:28N 48°17' W 004°35'0 0.0
2017-May-26 20:58N 48°17' W 004°35'0 0.0
2017-May-26 20:25N 48°17' W 004°35'0 0.0
2017-May-26 19:58N 48°17' W 004°35'0 0.0
2017-May-26 19:28N 48°17' W 004°35'0 0.0
2017-May-26 18:55N 48°17' W 004°35'0 0.0
2017-May-26 18:28N 48°17' W 004°35'0 0.0
2017-May-26 18:01N 48°17' W 004°35'0 0.0
2017-May-26 17:28N 48°17' W 004°35'0 0.0
2017-May-26 16:58N 48°17' W 004°35'0 0.5
2017-May-26 16:28N 48°17' W 004°36'0 0.0
2017-May-26 15:58N 48°17' W 004°36'0 0.0
2017-May-26 15:28N 48°17' W 004°36'0 0.5
2017-May-26 14:58N 48°17' W 004°35'2 2.1
2017-May-26 14:00N 48°19' W 004°36'0 1.0
2017-May-26 13:30N 48°18' W 004°36'1 1.4
2017-May-26 13:00N 48°18' W 004°37'1 2.1
2017-May-26 12:30N 48°17' W 004°35'0 0.6
2017-May-26 11:58N 48°17' W 004°35'0 0.0
2017-May-26 11:28N 48°17' W 004°35'0 0.0
2017-May-26 10:58N 48°17' W 004°35'0 0.0
2017-May-26 10:28N 48°17' W 004°35'0 0.0
2017-May-26 10:00N 48°17' W 004°35'3 5.4
2017-May-26 09:30N 48°20' W 004°35'5 9.1
2017-May-26 09:00N 48°22' W 004°29'1 1.9
2017-May-26 08:29N 48°23' W 004°30'0 0.0
2017-May-25 16:50N 48°23' W 004°30'0 0.0
2017-May-25 16:29N 48°23' W 004°30'1 3.0
2017-May-25 16:00N 48°22' W 004°30'4 7.8
2017-May-25 15:30N 48°19' W 004°35'3 4.7
2017-May-25 14:58N 48°17' W 004°35'0 0.0
2017-May-25 13:58N 48°17' W 004°35'0 0.0
2017-May-25 13:28N 48°17' W 004°35'0 0.0
2017-May-25 12:58N 48°17' W 004°35'0 0.0
2017-May-25 12:28N 48°17' W 004°35'0 0.0
2017-May-25 11:58N 48°17' W 004°35'0 0.0
2017-May-25 11:28N 48°17' W 004°35'0 0.0
2017-May-25 10:58N 48°17' W 004°35'0 0.0
2017-May-25 10:28N 48°17' W 004°35'0 0.0
2017-May-25 09:58N 48°17' W 004°35'2 3.3
2017-May-25 09:30N 48°18' W 004°35'4 7.0
2017-May-25 09:00N 48°21' W 004°32'2 4.5
2017-May-25 08:28N 48°23' W 004°30'0 0.0
2017-May-24 13:44N 48°23' W 004°30'0 0.0
2017-May-24 13:29N 48°23' W 004°30'1 1.4
2017-May-24 13:00N 48°23' W 004°29'3 5.4
2017-May-24 12:30N 48°20' W 004°29'1 1.1
2017-May-24 12:00N 48°20' W 004°28'0 0.8
2017-May-24 11:28N 48°20' W 004°27'0 0.0
2017-May-24 10:58N 48°20' W 004°27'0 0.0
2017-May-24 10:28N 48°20' W 004°27'0 0.0
2017-May-24 09:58N 48°20' W 004°27'1 1.5
2017-May-24 09:29N 48°19' W 004°28'1 1.2
2017-May-24 08:59N 48°20' W 004°28'1 3.2
2017-May-24 08:30N 48°21' W 004°29'1 2.8
2017-May-24 08:01N 48°23' W 004°30'0 0.2
2017-May-24 07:28N 48°23' W 004°30'0 0.0
2017-May-24 06:58N 48°23' W 004°30'0 0.0
2017-May-23 14:51N 48°23' W 004°30'0 0.1
2017-May-23 14:00N 48°23' W 004°30'  
2017-May-19 06:21N 48°23' W 004°30'1 1.9
2017-May-19 06:01N 48°22' W 004°30'3 6.1
2017-May-19 05:31N 48°21' W 004°33'4 8.2
2017-May-19 05:01N 48°18' W 004°38'4 7.6
2017-May-19 04:31N 48°17' W 004°44'4 7.1
2017-May-19 03:58N 48°13' W 004°45'4 7.6
2017-May-19 03:28N 48°09' W 004°45'4 7.9
2017-May-19 02:58N 48°05' W 004°46'55 3.8
2017-May-18 12:20N 47°42' W 003°31'1 3.0
2017-May-18 11:56N 47°41' W 003°30'1 1.9
2017-May-18 11:16N 47°40' W 003°29'1 5.1
2017-May-18 11:00N 47°41' W 003°28'1 2.5
2017-May-18 10:29N 47°40' W 003°27'2 4.0
2017-May-18 10:00N 47°41' W 003°25'3 6.0
2017-May-18 09:30N 47°43' W 003°22'  

Dump ship's entire track history